sensor_id;sensor_type;location;lat;lon;timestamp;temperature;humidity
12166;DHT22;6146;48.128;11.476;2023-07-31T00:01:20;16.80;99.90
12166;DHT22;6146;48.128;11.476;2023-07-31T00:03:46;16.70;99.90
12166;DHT22;6146;48.128;11.476;2023-07-31T00:06:12;16.60;99.90
12166;DHT22;6146;48.128;11.476;2023-07-31T00:08:38;16.60;99.90
12166;DHT22;6146;48.128;11.476;2023-07-31T00:11:03;16.50;99.90
12166;DHT22;6146;48.128;11.476;2023-07-31T00:13:29;16.00;99.90
12166;DHT22;6146;48.128;11.476;2023-07-31T00:15:54;16.40;99.90
12166;DHT22;6146;48.128;11.476;2023-07-31T00:18:20;16.30;99.90
12166;DHT22;6146;48.128;11.476;2023-07-31T00:20:46;16.20;99.90
12166;DHT22;6146;48.128;11.476;2023-07-31T00:23:11;16.20;99.90
12166;DHT22;6146;48.128;11.476;2023-07-31T00:25:37;16.10;99.90
12166;DHT22;6146;48.128;11.476;2023-07-31T00:28:02;16.20;99.90
12166;DHT22;6146;48.128;11.476;2023-07-31T00:30:28;16.10;99.90
12166;DHT22;6146;48.128;11.476;2023-07-31T00:32:54;16.10;99.90
12166;DHT22;6146;48.128;11.476;2023-07-31T00:35:19;16.10;99.90
12166;DHT22;6146;48.128;11.476;2023-07-31T00:37:45;16.10;99.90
12166;DHT22;6146;48.128;11.476;2023-07-31T00:40:11;16.20;99.90
12166;DHT22;6146;48.128;11.476;2023-07-31T00:42:36;16.20;99.90
12166;DHT22;6146;48.128;11.476;2023-07-31T00:45:02;16.10;99.90
12166;DHT22;6146;48.128;11.476;2023-07-31T00:47:28;16.10;99.90
12166;DHT22;6146;48.128;11.476;2023-07-31T00:49:54;16.00;99.90
12166;DHT22;6146;48.128;11.476;2023-07-31T00:52:20;16.00;99.90
12166;DHT22;6146;48.128;11.476;2023-07-31T00:54:46;16.00;99.90
12166;DHT22;6146;48.128;11.476;2023-07-31T00:57:11;15.90;99.90
12166;DHT22;6146;48.128;11.476;2023-07-31T00:59:37;16.00;99.90
12166;DHT22;6146;48.128;11.476;2023-07-31T01:02:03;16.00;99.90
12166;DHT22;6146;48.128;11.476;2023-07-31T01:04:29;16.00;99.90
12166;DHT22;6146;48.128;11.476;2023-07-31T01:12:07;16.00;99.90
12166;DHT22;6146;48.128;11.476;2023-07-31T01:14:34;16.00;99.90
12166;DHT22;6146;48.128;11.476;2023-07-31T01:17:00;16.00;99.90
12166;DHT22;6146;48.128;11.476;2023-07-31T01:19:26;16.00;99.90
12166;DHT22;6146;48.128;11.476;2023-07-31T01:25:05;16.20;99.90
12166;DHT22;6146;48.128;11.476;2023-07-31T01:27:43;16.20;99.90
12166;DHT22;6146;48.128;11.476;2023-07-31T01:30:16;16.20;99.90
12166;DHT22;6146;48.128;11.476;2023-07-31T01:32:47;16.30;99.90
12166;DHT22;6146;48.128;11.476;2023-07-31T01:35:14;16.30;99.90
12166;DHT22;6146;48.128;11.476;2023-07-31T01:37:39;16.40;99.90
12166;DHT22;6146;48.128;11.476;2023-07-31T01:40:06;16.40;99.90
12166;DHT22;6146;48.128;11.476;2023-07-31T01:42:32;16.40;99.90
12166;DHT22;6146;48.128;11.476;2023-07-31T01:44:57;16.40;99.90
12166;DHT22;6146;48.128;11.476;2023-07-31T01:47:23;16.40;99.90
12166;DHT22;6146;48.128;11.476;2023-07-31T01:49:49;16.40;99.90
12166;DHT22;6146;48.128;11.476;2023-07-31T01:52:14;16.40;99.90
12166;DHT22;6146;48.128;11.476;2023-07-31T01:54:40;16.40;99.90
12166;DHT22;6146;48.128;11.476;2023-07-31T01:57:06;16.50;99.90
12166;DHT22;6146;48.128;11.476;2023-07-31T01:59:31;16.50;99.90
12166;DHT22;6146;48.128;11.476;2023-07-31T02:01:57;16.50;99.90
12166;DHT22;6146;48.128;11.476;2023-07-31T02:04:25;16.50;99.90
12166;DHT22;6146;48.128;11.476;2023-07-31T02:06:52;16.50;99.90
12166;DHT22;6146;48.128;11.476;2023-07-31T02:09:17;16.50;99.90
12166;DHT22;6146;48.128;11.476;2023-07-31T02:11:43;16.50;99.90
12166;DHT22;6146;48.128;11.476;2023-07-31T02:14:08;16.50;99.90
12166;DHT22;6146;48.128;11.476;2023-07-31T02:16:34;16.50;99.90
12166;DHT22;6146;48.128;11.476;2023-07-31T02:18:59;16.50;99.90
12166;DHT22;6146;48.128;11.476;2023-07-31T02:21:25;16.50;99.90
12166;DHT22;6146;48.128;11.476;2023-07-31T02:23:50;16.50;99.90
12166;DHT22;6146;48.128;11.476;2023-07-31T02:26:16;16.50;99.90
12166;DHT22;6146;48.128;11.476;2023-07-31T02:28:41;16.50;99.90
12166;DHT22;6146;48.128;11.476;2023-07-31T02:31:08;16.50;99.90
12166;DHT22;6146;48.128;11.476;2023-07-31T02:33:34;16.60;99.90
12166;DHT22;6146;48.128;11.476;2023-07-31T02:35:59;16.50;99.90
12166;DHT22;6146;48.128;11.476;2023-07-31T02:38:25;16.70;99.90
12166;DHT22;6146;48.128;11.476;2023-07-31T02:40:50;16.60;99.90
12166;DHT22;6146;48.128;11.476;2023-07-31T02:43:16;16.50;99.90
12166;DHT22;6146;48.128;11.476;2023-07-31T02:45:41;16.50;99.90
12166;DHT22;6146;48.128;11.476;2023-07-31T02:48:07;16.40;99.90
12166;DHT22;6146;48.128;11.476;2023-07-31T02:50:33;16.40;99.90
12166;DHT22;6146;48.128;11.476;2023-07-31T02:52:58;16.40;99.90
12166;DHT22;6146;48.128;11.476;2023-07-31T02:55:24;16.30;99.90
12166;DHT22;6146;48.128;11.476;2023-07-31T02:57:50;16.10;99.90
12166;DHT22;6146;48.128;11.476;2023-07-31T03:00:17;16.10;99.90
12166;DHT22;6146;48.128;11.476;2023-07-31T03:02:43;16.10;99.90
12166;DHT22;6146;48.128;11.476;2023-07-31T03:05:08;16.00;99.90
12166;DHT22;6146;48.128;11.476;2023-07-31T03:07:34;15.90;99.90
12166;DHT22;6146;48.128;11.476;2023-07-31T03:09:59;15.80;99.90
12166;DHT22;6146;48.128;11.476;2023-07-31T03:12:25;15.90;99.90
12166;DHT22;6146;48.128;11.476;2023-07-31T03:14:50;15.90;99.90
12166;DHT22;6146;48.128;11.476;2023-07-31T03:17:16;15.90;99.90
12166;DHT22;6146;48.128;11.476;2023-07-31T03:19:41;15.90;99.90
12166;DHT22;6146;48.128;11.476;2023-07-31T03:22:07;15.80;99.90
12166;DHT22;6146;48.128;11.476;2023-07-31T03:24:32;15.80;99.90
12166;DHT22;6146;48.128;11.476;2023-07-31T03:26:58;15.70;99.90
12166;DHT22;6146;48.128;11.476;2023-07-31T03:29:23;15.70;99.90
12166;DHT22;6146;48.128;11.476;2023-07-31T03:31:49;15.70;99.90
12166;DHT22;6146;48.128;11.476;2023-07-31T03:34:14;15.70;99.90
12166;DHT22;6146;48.128;11.476;2023-07-31T03:36:40;15.60;99.90
12166;DHT22;6146;48.128;11.476;2023-07-31T03:39:05;15.60;99.90
12166;DHT22;6146;48.128;11.476;2023-07-31T03:41:31;15.60;99.90
12166;DHT22;6146;48.128;11.476;2023-07-31T03:43:56;15.60;99.90
12166;DHT22;6146;48.128;11.476;2023-07-31T03:46:23;15.60;99.90
12166;DHT22;6146;48.128;11.476;2023-07-31T03:48:49;15.60;99.90
12166;DHT22;6146;48.128;11.476;2023-07-31T03:51:15;15.50;99.90
12166;DHT22;6146;48.128;11.476;2023-07-31T03:53:41;15.50;99.90
12166;DHT22;6146;48.128;11.476;2023-07-31T03:56:06;15.50;99.90
12166;DHT22;6146;48.128;11.476;2023-07-31T03:58:32;15.50;99.90
12166;DHT22;6146;48.128;11.476;2023-07-31T04:00:57;15.50;99.90
12166;DHT22;6146;48.128;11.476;2023-07-31T04:03:23;15.50;99.90
12166;DHT22;6146;48.128;11.476;2023-07-31T04:05:48;15.60;99.90
12166;DHT22;6146;48.128;11.476;2023-07-31T04:08:14;15.60;99.90
12166;DHT22;6146;48.128;11.476;2023-07-31T04:10:39;15.60;99.90
12166;DHT22;6146;48.128;11.476;2023-07-31T04:13:05;15.50;99.90
12166;DHT22;6146;48.128;11.476;2023-07-31T04:15:30;15.70;99.90
12166;DHT22;6146;48.128;11.476;2023-07-31T04:17:56;14.70;99.90
12166;DHT22;6146;48.128;11.476;2023-07-31T04:20:21;15.70;99.90
12166;DHT22;6146;48.128;11.476;2023-07-31T04:22:47;15.80;99.90
12166;DHT22;6146;48.128;11.476;2023-07-31T04:25:13;15.80;99.90
12166;DHT22;6146;48.128;11.476;2023-07-31T04:27:39;15.90;99.90
12166;DHT22;6146;48.128;11.476;2023-07-31T04:30:05;15.90;99.90
12166;DHT22;6146;48.128;11.476;2023-07-31T04:32:31;16.00;99.90
12166;DHT22;6146;48.128;11.476;2023-07-31T04:34:57;16.00;99.90
12166;DHT22;6146;48.128;11.476;2023-07-31T04:37:22;15.50;99.90
12166;DHT22;6146;48.128;11.476;2023-07-31T04:39:48;16.00;99.90
12166;DHT22;6146;48.128;11.476;2023-07-31T04:42:13;16.10;99.90
12166;DHT22;6146;48.128;11.476;2023-07-31T04:44:39;14.80;99.90
12166;DHT22;6146;48.128;11.476;2023-07-31T04:47:04;16.20;99.90
12166;DHT22;6146;48.128;11.476;2023-07-31T04:49:32;16.20;99.90
12166;DHT22;6146;48.128;11.476;2023-07-31T04:51:58;16.30;99.90
12166;DHT22;6146;48.128;11.476;2023-07-31T04:54:23;16.50;99.90
12166;DHT22;6146;48.128;11.476;2023-07-31T04:56:49;16.80;99.90
12166;DHT22;6146;48.128;11.476;2023-07-31T04:59:14;17.50;99.90
12166;DHT22;6146;48.128;11.476;2023-07-31T05:01:40;18.00;99.90
12166;DHT22;6146;48.128;11.476;2023-07-31T05:04:06;18.30;99.90
12166;DHT22;6146;48.128;11.476;2023-07-31T05:06:31;18.30;99.90
12166;DHT22;6146;48.128;11.476;2023-07-31T05:08:57;18.60;99.90
12166;DHT22;6146;48.128;11.476;2023-07-31T05:11:22;19.50;99.90
12166;DHT22;6146;48.128;11.476;2023-07-31T05:13:48;20.50;99.90
12166;DHT22;6146;48.128;11.476;2023-07-31T05:16:13;21.10;99.90
12166;DHT22;6146;48.128;11.476;2023-07-31T05:18:39;21.50;99.90
12166;DHT22;6146;48.128;11.476;2023-07-31T05:21:04;21.90;99.90
12166;DHT22;6146;48.128;11.476;2023-07-31T05:23:30;22.10;99.90
12166;DHT22;6146;48.128;11.476;2023-07-31T05:26:03;21.80;99.90
12166;DHT22;6146;48.128;11.476;2023-07-31T05:28:29;21.60;99.90
12166;DHT22;6146;48.128;11.476;2023-07-31T05:30:59;21.50;99.90
12166;DHT22;6146;48.128;11.476;2023-07-31T05:33:25;21.60;99.90
12166;DHT22;6146;48.128;11.476;2023-07-31T05:35:51;21.70;99.90
12166;DHT22;6146;48.128;11.476;2023-07-31T05:38:16;22.00;99.90
12166;DHT22;6146;48.128;11.476;2023-07-31T05:40:42;22.30;99.90
12166;DHT22;6146;48.128;11.476;2023-07-31T05:43:08;22.40;99.90
12166;DHT22;6146;48.128;11.476;2023-07-31T05:45:35;22.70;99.90
12166;DHT22;6146;48.128;11.476;2023-07-31T05:48:00;22.80;99.90
12166;DHT22;6146;48.128;11.476;2023-07-31T05:50:26;22.90;99.90
12166;DHT22;6146;48.128;11.476;2023-07-31T05:52:51;22.70;99.90
12166;DHT22;6146;48.128;11.476;2023-07-31T05:55:17;22.50;99.90
12166;DHT22;6146;48.128;11.476;2023-07-31T05:57:43;22.30;99.90
12166;DHT22;6146;48.128;11.476;2023-07-31T06:00:11;21.80;99.90
12166;DHT22;6146;48.128;11.476;2023-07-31T06:02:37;21.10;99.90
12166;DHT22;6146;48.128;11.476;2023-07-31T06:05:04;20.80;99.90
12166;DHT22;6146;48.128;11.476;2023-07-31T06:07:33;20.80;99.90
12166;DHT22;6146;48.128;11.476;2023-07-31T06:09:59;21.20;99.90
12166;DHT22;6146;48.128;11.476;2023-07-31T06:12:31;22.00;99.90
12166;DHT22;6146;48.128;11.476;2023-07-31T06:14:57;23.00;99.90
12166;DHT22;6146;48.128;11.476;2023-07-31T06:17:22;23.90;99.90
12166;DHT22;6146;48.128;11.476;2023-07-31T06:19:49;24.30;99.90
12166;DHT22;6146;48.128;11.476;2023-07-31T06:22:15;24.20;99.90
12166;DHT22;6146;48.128;11.476;2023-07-31T06:24:40;24.10;99.90
12166;DHT22;6146;48.128;11.476;2023-07-31T06:27:06;23.60;99.90
12166;DHT22;6146;48.128;11.476;2023-07-31T06:29:32;23.30;99.90
12166;DHT22;6146;48.128;11.476;2023-07-31T06:31:58;22.80;99.90
12166;DHT22;6146;48.128;11.476;2023-07-31T06:34:23;22.20;99.90
12166;DHT22;6146;48.128;11.476;2023-07-31T06:36:49;21.90;99.90
12166;DHT22;6146;48.128;11.476;2023-07-31T06:39:14;21.30;99.90
12166;DHT22;6146;48.128;11.476;2023-07-31T06:41:41;21.20;99.90
12166;DHT22;6146;48.128;11.476;2023-07-31T06:44:08;21.20;99.90
12166;DHT22;6146;48.128;11.476;2023-07-31T06:46:33;22.60;99.90
12166;DHT22;6146;48.128;11.476;2023-07-31T06:48:59;21.70;99.90
12166;DHT22;6146;48.128;11.476;2023-07-31T06:51:25;21.80;99.90
12166;DHT22;6146;48.128;11.476;2023-07-31T06:53:50;22.20;99.90
12166;DHT22;6146;48.128;11.476;2023-07-31T06:56:16;22.50;99.90
12166;DHT22;6146;48.128;11.476;2023-07-31T06:58:41;22.30;99.90
12166;DHT22;6146;48.128;11.476;2023-07-31T07:01:07;22.10;99.90
12166;DHT22;6146;48.128;11.476;2023-07-31T07:03:32;22.10;99.90
12166;DHT22;6146;48.128;11.476;2023-07-31T07:05:58;22.00;99.90
12166;DHT22;6146;48.128;11.476;2023-07-31T07:08:24;22.10;99.90
12166;DHT22;6146;48.128;11.476;2023-07-31T07:10:50;22.10;99.90
12166;DHT22;6146;48.128;11.476;2023-07-31T07:13:15;22.00;99.90
12166;DHT22;6146;48.128;11.476;2023-07-31T07:15:41;22.10;99.90
12166;DHT22;6146;48.128;11.476;2023-07-31T07:18:07;22.50;99.90
12166;DHT22;6146;48.128;11.476;2023-07-31T07:20:32;22.80;99.90
12166;DHT22;6146;48.128;11.476;2023-07-31T07:22:58;23.80;99.90
12166;DHT22;6146;48.128;11.476;2023-07-31T07:25:23;24.20;99.90
12166;DHT22;6146;48.128;11.476;2023-07-31T07:27:49;25.00;99.90
12166;DHT22;6146;48.128;11.476;2023-07-31T07:30:14;25.00;99.70
12166;DHT22;6146;48.128;11.476;2023-07-31T07:32:40;24.60;99.90
12166;DHT22;6146;48.128;11.476;2023-07-31T07:35:06;24.30;99.90
12166;DHT22;6146;48.128;11.476;2023-07-31T07:37:32;24.50;99.90
12166;DHT22;6146;48.128;11.476;2023-07-31T07:39:57;24.90;99.90
12166;DHT22;6146;48.128;11.476;2023-07-31T07:42:23;25.50;99.50
12166;DHT22;6146;48.128;11.476;2023-07-31T07:44:49;24.80;98.50
12166;DHT22;6146;48.128;11.476;2023-07-31T07:47:14;24.20;99.50
12166;DHT22;6146;48.128;11.476;2023-07-31T07:49:40;24.00;99.90
12166;DHT22;6146;48.128;11.476;2023-07-31T07:52:06;24.10;99.80
12166;DHT22;6146;48.128;11.476;2023-07-31T07:54:31;24.00;99.90
12166;DHT22;6146;48.128;11.476;2023-07-31T07:56:57;24.20;99.90
12166;DHT22;6146;48.128;11.476;2023-07-31T07:59:23;24.70;98.10
12166;DHT22;6146;48.128;11.476;2023-07-31T08:01:48;25.00;99.00
12166;DHT22;6146;48.128;11.476;2023-07-31T08:04:14;26.10;96.90
12166;DHT22;6146;48.128;11.476;2023-07-31T08:06:39;26.50;95.80
12166;DHT22;6146;48.128;11.476;2023-07-31T08:09:05;26.90;94.40
12166;DHT22;6146;48.128;11.476;2023-07-31T08:11:35;26.90;94.30
12166;DHT22;6146;48.128;11.476;2023-07-31T08:14:00;27.10;94.80
12166;DHT22;6146;48.128;11.476;2023-07-31T08:16:26;28.60;91.70
12166;DHT22;6146;48.128;11.476;2023-07-31T08:18:52;29.70;87.80
12166;DHT22;6146;48.128;11.476;2023-07-31T08:21:17;30.30;82.90
12166;DHT22;6146;48.128;11.476;2023-07-31T08:23:43;30.30;82.10
12166;DHT22;6146;48.128;11.476;2023-07-31T08:26:15;30.60;79.40
12166;DHT22;6146;48.128;11.476;2023-07-31T08:28:40;30.50;74.80
12166;DHT22;6146;48.128;11.476;2023-07-31T08:31:06;29.70;77.20
12166;DHT22;6146;48.128;11.476;2023-07-31T08:33:31;28.60;77.90
12166;DHT22;6146;48.128;11.476;2023-07-31T08:35:57;27.60;82.50
12166;DHT22;6146;48.128;11.476;2023-07-31T08:38:22;27.10;85.10
12166;DHT22;6146;48.128;11.476;2023-07-31T08:40:50;26.30;88.00
12166;DHT22;6146;48.128;11.476;2023-07-31T08:43:16;25.90;91.30
12166;DHT22;6146;48.128;11.476;2023-07-31T08:45:42;25.60;89.60
12166;DHT22;6146;48.128;11.476;2023-07-31T08:48:08;25.20;91.50
12166;DHT22;6146;48.128;11.476;2023-07-31T08:50:33;24.60;91.90
12166;DHT22;6146;48.128;11.476;2023-07-31T08:52:59;24.20;93.10
12166;DHT22;6146;48.128;11.476;2023-07-31T08:55:26;23.60;93.00
12166;DHT22;6146;48.128;11.476;2023-07-31T08:57:52;23.20;93.90
12166;DHT22;6146;48.128;11.476;2023-07-31T09:00:21;22.60;94.10
12166;DHT22;6146;48.128;11.476;2023-07-31T09:03:37;22.60;96.50
12166;DHT22;6146;48.128;11.476;2023-07-31T09:05:39;22.90;97.20
12166;DHT22;6146;48.128;11.476;2023-07-31T09:08:07;23.20;95.70
12166;DHT22;6146;48.128;11.476;2023-07-31T09:10:34;23.70;94.60
12166;DHT22;6146;48.128;11.476;2023-07-31T09:13:00;24.10;94.50
12166;DHT22;6146;48.128;11.476;2023-07-31T09:15:27;25.10;92.10
12166;DHT22;6146;48.128;11.476;2023-07-31T09:18:01;25.60;91.20
12166;DHT22;6146;48.128;11.476;2023-07-31T09:20:26;26.50;90.30
12166;DHT22;6146;48.128;11.476;2023-07-31T09:22:52;26.90;90.50
12166;DHT22;6146;48.128;11.476;2023-07-31T09:25:25;27.10;88.00
12166;DHT22;6146;48.128;11.476;2023-07-31T09:28:00;27.10;88.30
12166;DHT22;6146;48.128;11.476;2023-07-31T09:30:26;27.50;86.20
12166;DHT22;6146;48.128;11.476;2023-07-31T09:33:03;28.40;85.10
12166;DHT22;6146;48.128;11.476;2023-07-31T09:35:30;29.50;80.20
12166;DHT22;6146;48.128;11.476;2023-07-31T09:38:07;29.70;77.20
12166;DHT22;6146;48.128;11.476;2023-07-31T09:40:35;29.90;78.70
12166;DHT22;6146;48.128;11.476;2023-07-31T09:43:35;30.60;72.80
12166;DHT22;6146;48.128;11.476;2023-07-31T09:46:02;31.30;72.40
12166;DHT22;6146;48.128;11.476;2023-07-31T09:48:28;32.10;69.90
12166;DHT22;6146;48.128;11.476;2023-07-31T09:50:54;32.80;69.60
12166;DHT22;6146;48.128;11.476;2023-07-31T09:53:28;33.50;63.90
12166;DHT22;6146;48.128;11.476;2023-07-31T09:55:54;34.70;59.40
12166;DHT22;6146;48.128;11.476;2023-07-31T09:58:20;35.00;56.30
12166;DHT22;6146;48.128;11.476;2023-07-31T10:00:46;34.20;60.20
12166;DHT22;6146;48.128;11.476;2023-07-31T10:03:12;33.20;58.00
12166;DHT22;6146;48.128;11.476;2023-07-31T10:05:42;32.20;58.10
12166;DHT22;6146;48.128;11.476;2023-07-31T10:08:13;31.70;60.50
12166;DHT22;6146;48.128;11.476;2023-07-31T10:10:43;31.70;63.40
12166;DHT22;6146;48.128;11.476;2023-07-31T10:13:08;31.40;60.00
12166;DHT22;6146;48.128;11.476;2023-07-31T10:15:35;32.10;59.10
12166;DHT22;6146;48.128;11.476;2023-07-31T10:18:01;31.80;58.70
12166;DHT22;6146;48.128;11.476;2023-07-31T10:20:27;32.00;59.30
12166;DHT22;6146;48.128;11.476;2023-07-31T10:22:54;32.60;58.40
12166;DHT22;6146;48.128;11.476;2023-07-31T10:25:21;33.30;55.80
12166;DHT22;6146;48.128;11.476;2023-07-31T10:27:47;32.70;55.00
12166;DHT22;6146;48.128;11.476;2023-07-31T10:30:17;32.60;56.40
12166;DHT22;6146;48.128;11.476;2023-07-31T10:32:45;32.50;57.70
12166;DHT22;6146;48.128;11.476;2023-07-31T10:35:12;32.20;57.50
12166;DHT22;6146;48.128;11.476;2023-07-31T10:37:38;32.80;59.90
12166;DHT22;6146;48.128;11.476;2023-07-31T10:40:18;32.70;54.50
12166;DHT22;6146;48.128;11.476;2023-07-31T10:42:48;31.90;58.60
12166;DHT22;6146;48.128;11.476;2023-07-31T10:48:02;31.30;58.30
12166;DHT22;6146;48.128;11.476;2023-07-31T10:50:29;30.40;58.60
12166;DHT22;6146;48.128;11.476;2023-07-31T10:52:58;29.30;61.60
12166;DHT22;6146;48.128;11.476;2023-07-31T10:55:35;29.10;66.40
12166;DHT22;6146;48.128;11.476;2023-07-31T10:58:07;28.80;66.20
12166;DHT22;6146;48.128;11.476;2023-07-31T11:00:34;28.30;68.20
12166;DHT22;6146;48.128;11.476;2023-07-31T11:06:04;29.30;70.00
12166;DHT22;6146;48.128;11.476;2023-07-31T11:08:34;30.90;59.10
12166;DHT22;6146;48.128;11.476;2023-07-31T11:13:34;30.10;63.50
12166;DHT22;6146;48.128;11.476;2023-07-31T11:16:00;30.00;60.60
12166;DHT22;6146;48.128;11.476;2023-07-31T11:18:26;29.30;64.30
12166;DHT22;6146;48.128;11.476;2023-07-31T11:20:53;29.30;62.90
12166;DHT22;6146;48.128;11.476;2023-07-31T11:23:19;29.20;62.90
12166;DHT22;6146;48.128;11.476;2023-07-31T11:25:45;29.80;64.10
12166;DHT22;6146;48.128;11.476;2023-07-31T11:28:13;30.90;58.00
12166;DHT22;6146;48.128;11.476;2023-07-31T11:30:39;31.20;56.50
12166;DHT22;6146;48.128;11.476;2023-07-31T11:33:07;30.20;58.00
12166;DHT22;6146;48.128;11.476;2023-07-31T11:35:33;29.80;58.50
12166;DHT22;6146;48.128;11.476;2023-07-31T11:38:00;29.30;60.00
12166;DHT22;6146;48.128;11.476;2023-07-31T11:40:26;29.20;63.10
12166;DHT22;6146;48.128;11.476;2023-07-31T11:42:58;29.80;60.50
12166;DHT22;6146;48.128;11.476;2023-07-31T11:45:26;30.30;59.10
12166;DHT22;6146;48.128;11.476;2023-07-31T11:47:55;30.40;59.40
12166;DHT22;6146;48.128;11.476;2023-07-31T11:50:22;30.50;61.50
12166;DHT22;6146;48.128;11.476;2023-07-31T11:52:54;31.10;62.40
12166;DHT22;6146;48.128;11.476;2023-07-31T11:55:21;30.90;59.80
12166;DHT22;6146;48.128;11.476;2023-07-31T11:57:47;30.90;58.80
12166;DHT22;6146;48.128;11.476;2023-07-31T12:00:14;31.00;58.50
12166;DHT22;6146;48.128;11.476;2023-07-31T12:02:40;31.00;57.00
12166;DHT22;6146;48.128;11.476;2023-07-31T12:05:11;30.60;58.10
12166;DHT22;6146;48.128;11.476;2023-07-31T12:07:47;30.70;58.20
12166;DHT22;6146;48.128;11.476;2023-07-31T12:10:30;30.60;56.50
12166;DHT22;6146;48.128;11.476;2023-07-31T12:13:03;30.20;57.80
12166;DHT22;6146;48.128;11.476;2023-07-31T12:15:32;30.00;57.40
12166;DHT22;6146;48.128;11.476;2023-07-31T12:17:58;29.20;57.10
12166;DHT22;6146;48.128;11.476;2023-07-31T12:20:24;28.50;58.70
12166;DHT22;6146;48.128;11.476;2023-07-31T12:22:49;28.10;59.30
12166;DHT22;6146;48.128;11.476;2023-07-31T12:25:15;28.00;63.70
12166;DHT22;6146;48.128;11.476;2023-07-31T12:27:44;28.10;61.20
12166;DHT22;6146;48.128;11.476;2023-07-31T12:30:49;28.10;64.20
12166;DHT22;6146;48.128;11.476;2023-07-31T12:33:15;28.10;63.30
12166;DHT22;6146;48.128;11.476;2023-07-31T12:35:44;28.20;62.30
12166;DHT22;6146;48.128;11.476;2023-07-31T12:38:11;27.90;63.70
12166;DHT22;6146;48.128;11.476;2023-07-31T12:40:38;27.90;64.90
12166;DHT22;6146;48.128;11.476;2023-07-31T12:43:04;28.00;64.60
12166;DHT22;6146;48.128;11.476;2023-07-31T12:45:30;28.60;64.20
12166;DHT22;6146;48.128;11.476;2023-07-31T12:47:57;28.70;61.50
12166;DHT22;6146;48.128;11.476;2023-07-31T12:50:23;28.60;62.30
12166;DHT22;6146;48.128;11.476;2023-07-31T12:52:49;28.30;63.70
12166;DHT22;6146;48.128;11.476;2023-07-31T12:55:15;27.80;64.80
12166;DHT22;6146;48.128;11.476;2023-07-31T12:57:40;27.40;66.30
12166;DHT22;6146;48.128;11.476;2023-07-31T13:00:07;27.20;68.10
12166;DHT22;6146;48.128;11.476;2023-07-31T13:02:33;27.60;72.10
12166;DHT22;6146;48.128;11.476;2023-07-31T13:04:58;28.00;66.50
12166;DHT22;6146;48.128;11.476;2023-07-31T13:07:24;28.50;69.10
12166;DHT22;6146;48.128;11.476;2023-07-31T13:09:51;28.70;66.50
12166;DHT22;6146;48.128;11.476;2023-07-31T13:12:16;29.10;61.70
12166;DHT22;6146;48.128;11.476;2023-07-31T13:14:42;28.90;62.50
12166;DHT22;6146;48.128;11.476;2023-07-31T13:17:07;28.50;59.50
12166;DHT22;6146;48.128;11.476;2023-07-31T13:19:33;28.30;62.20
12166;DHT22;6146;48.128;11.476;2023-07-31T13:21:58;28.20;62.60
12166;DHT22;6146;48.128;11.476;2023-07-31T13:24:24;28.40;63.00
12166;DHT22;6146;48.128;11.476;2023-07-31T13:26:49;28.50;63.20
12166;DHT22;6146;48.128;11.476;2023-07-31T13:29:15;28.40;63.20
12166;DHT22;6146;48.128;11.476;2023-07-31T13:31:40;28.50;67.70
12166;DHT22;6146;48.128;11.476;2023-07-31T13:34:06;28.30;64.80
12166;DHT22;6146;48.128;11.476;2023-07-31T13:36:31;28.10;65.50
12166;DHT22;6146;48.128;11.476;2023-07-31T13:38:59;27.90;64.70
12166;DHT22;6146;48.128;11.476;2023-07-31T13:41:25;27.80;65.70
12166;DHT22;6146;48.128;11.476;2023-07-31T13:43:50;27.90;63.10
12166;DHT22;6146;48.128;11.476;2023-07-31T13:46:16;27.50;65.60
12166;DHT22;6146;48.128;11.476;2023-07-31T13:48:41;27.40;67.20
12166;DHT22;6146;48.128;11.476;2023-07-31T13:51:07;27.20;67.70
12166;DHT22;6146;48.128;11.476;2023-07-31T13:53:32;27.30;68.90
12166;DHT22;6146;48.128;11.476;2023-07-31T13:55:58;27.40;68.00
12166;DHT22;6146;48.128;11.476;2023-07-31T13:58:23;27.30;67.30
12166;DHT22;6146;48.128;11.476;2023-07-31T14:00:49;26.90;63.50
12166;DHT22;6146;48.128;11.476;2023-07-31T14:03:15;26.50;64.10
12166;DHT22;6146;48.128;11.476;2023-07-31T14:05:40;26.50;65.70
12166;DHT22;6146;48.128;11.476;2023-07-31T14:08:06;26.40;66.60
12166;DHT22;6146;48.128;11.476;2023-07-31T14:10:31;26.40;68.80
12166;DHT22;6146;48.128;11.476;2023-07-31T14:12:57;26.50;67.30
12166;DHT22;6146;48.128;11.476;2023-07-31T14:15:22;26.70;69.30
12166;DHT22;6146;48.128;11.476;2023-07-31T14:17:48;26.70;66.10
12166;DHT22;6146;48.128;11.476;2023-07-31T14:20:13;26.70;69.70
12166;DHT22;6146;48.128;11.476;2023-07-31T14:22:39;26.70;69.30
12166;DHT22;6146;48.128;11.476;2023-07-31T14:25:05;26.30;68.20
12166;DHT22;6146;48.128;11.476;2023-07-31T14:27:31;26.20;69.70
12166;DHT22;6146;48.128;11.476;2023-07-31T14:29:56;26.40;68.70
12166;DHT22;6146;48.128;11.476;2023-07-31T14:32:22;26.70;68.80
12166;DHT22;6146;48.128;11.476;2023-07-31T14:34:50;27.00;70.40
12166;DHT22;6146;48.128;11.476;2023-07-31T14:37:16;27.20;69.60
12166;DHT22;6146;48.128;11.476;2023-07-31T14:39:42;27.20;70.50
12166;DHT22;6146;48.128;11.476;2023-07-31T14:42:08;27.10;70.00
12166;DHT22;6146;48.128;11.476;2023-07-31T14:44:34;27.00;71.40
12166;DHT22;6146;48.128;11.476;2023-07-31T14:46:59;27.00;66.70
12166;DHT22;6146;48.128;11.476;2023-07-31T14:49:25;27.10;68.80
12166;DHT22;6146;48.128;11.476;2023-07-31T14:51:52;27.10;66.10
12166;DHT22;6146;48.128;11.476;2023-07-31T14:54:18;27.00;68.70
12166;DHT22;6146;48.128;11.476;2023-07-31T14:56:43;27.00;70.10
12166;DHT22;6146;48.128;11.476;2023-07-31T14:59:09;27.00;67.00
12166;DHT22;6146;48.128;11.476;2023-07-31T15:01:35;26.60;70.10
12166;DHT22;6146;48.128;11.476;2023-07-31T15:04:01;26.60;69.70
12166;DHT22;6146;48.128;11.476;2023-07-31T15:06:26;26.60;67.60
12166;DHT22;6146;48.128;11.476;2023-07-31T15:08:53;26.30;69.60
12166;DHT22;6146;48.128;11.476;2023-07-31T15:11:18;26.30;70.70
12166;DHT22;6146;48.128;11.476;2023-07-31T15:13:44;26.40;73.40
12166;DHT22;6146;48.128;11.476;2023-07-31T15:16:09;26.30;71.30
12166;DHT22;6146;48.128;11.476;2023-07-31T15:18:35;26.00;69.10
12166;DHT22;6146;48.128;11.476;2023-07-31T15:21:00;25.80;70.80
12166;DHT22;6146;48.128;11.476;2023-07-31T15:23:26;25.70;72.10
12166;DHT22;6146;48.128;11.476;2023-07-31T15:25:52;25.90;75.50
12166;DHT22;6146;48.128;11.476;2023-07-31T15:28:18;25.90;74.80
12166;DHT22;6146;48.128;11.476;2023-07-31T15:30:44;25.80;72.80
12166;DHT22;6146;48.128;11.476;2023-07-31T15:33:10;25.70;74.00
12166;DHT22;6146;48.128;11.476;2023-07-31T15:35:35;25.70;75.20
12166;DHT22;6146;48.128;11.476;2023-07-31T15:38:01;25.80;75.50
12166;DHT22;6146;48.128;11.476;2023-07-31T15:40:26;25.70;73.60
12166;DHT22;6146;48.128;11.476;2023-07-31T15:42:52;25.30;73.10